<?xml version="1.0" encoding="UTF-8" standalone="no" ?>
<gpx xmlns="http://www.topografix.com/GPX/1/1" xmlns:xsi="http://www.w3.org/2001/XMLSchema-instance" xsi:schemaLocation="http://www.topografix.com/GPX/1/1 http://www.topografix.com/GPX/1/1/gpx.xsd" version="1.1" creator="VisuGPX - https://www.visugpx.com">
  <metadata>
    <name>Feuquières_Valines</name>
    <desc><![CDATA[une petite balade de famille]]></desc>
  </metadata>
  <trk>
    <name><![CDATA[Piste0001OAHAHA]]></name>
    <trkseg>
      <trkpt lat="50.06163" lon="1.61007">
        <ele>120</ele>
        <time>2011-06-09T12:01:19.000Z</time>
      </trkpt>
      <trkpt lat="50.06193" lon="1.61023">
        <ele>111</ele>
        <time>2011-06-09T12:01:46.000Z</time>
      </trkpt>
      <trkpt lat="50.06199" lon="1.61024">
        <ele>109</ele>
        <time>2011-06-09T12:01:51.000Z</time>
      </trkpt>
      <trkpt lat="50.06217" lon="1.61033">
        <ele>103</ele>
        <time>2011-06-09T12:02:06.000Z</time>
      </trkpt>
      <trkpt lat="50.06223" lon="1.61036">
        <ele>101</ele>
        <time>2011-06-09T12:02:12.000Z</time>
      </trkpt>
      <trkpt lat="50.06267" lon="1.61058">
        <ele>95</ele>
        <time>2011-06-09T12:02:48.000Z</time>
      </trkpt>
      <trkpt lat="50.06268" lon="1.61059">
        <ele>95</ele>
        <time>2011-06-09T12:02:49.000Z</time>
      </trkpt>
      <trkpt lat="50.06283" lon="1.61065">
        <ele>98</ele>
        <time>2011-06-09T12:03:01.000Z</time>
      </trkpt>
      <trkpt lat="50.06327" lon="1.61082">
        <ele>100</ele>
        <time>2011-06-09T12:03:36.000Z</time>
      </trkpt>
      <trkpt lat="50.06328" lon="1.61083">
        <ele>100</ele>
        <time>2011-06-09T12:03:37.000Z</time>
      </trkpt>
      <trkpt lat="50.06359" lon="1.61099">
        <ele>97</ele>
        <time>2011-06-09T12:04:03.000Z</time>
      </trkpt>
      <trkpt lat="50.06364" lon="1.61103">
        <ele>95</ele>
        <time>2011-06-09T12:04:08.000Z</time>
      </trkpt>
      <trkpt lat="50.06387" lon="1.61121">
        <ele>93</ele>
        <time>2011-06-09T12:04:28.000Z</time>
      </trkpt>
      <trkpt lat="50.06396" lon="1.61142">
        <ele>93</ele>
        <time>2011-06-09T12:04:42.000Z</time>
      </trkpt>
      <trkpt lat="50.06398" lon="1.61159">
        <ele>88</ele>
        <time>2011-06-09T12:04:52.000Z</time>
      </trkpt>
      <trkpt lat="50.064" lon="1.61168">
        <ele>86</ele>
        <time>2011-06-09T12:04:57.000Z</time>
      </trkpt>
      <trkpt lat="50.06404" lon="1.61187">
        <ele>86</ele>
        <time>2011-06-09T12:05:09.000Z</time>
      </trkpt>
      <trkpt lat="50.06419" lon="1.61254">
        <ele>84</ele>
        <time>2011-06-09T12:05:49.000Z</time>
      </trkpt>
      <trkpt lat="50.0642" lon="1.61256">
        <ele>84</ele>
        <time>2011-06-09T12:05:50.000Z</time>
      </trkpt>
      <trkpt lat="50.06421" lon="1.61257">
        <ele>84</ele>
        <time>2011-06-09T12:05:51.000Z</time>
      </trkpt>
      <trkpt lat="50.06431" lon="1.61278">
        <ele>86</ele>
        <time>2011-06-09T12:06:06.000Z</time>
      </trkpt>
      <trkpt lat="50.06448" lon="1.6131">
        <ele>89</ele>
        <time>2011-06-09T12:06:27.000Z</time>
      </trkpt>
      <trkpt lat="50.06456" lon="1.61325">
        <ele>90</ele>
        <time>2011-06-09T12:06:38.000Z</time>
      </trkpt>
      <trkpt lat="50.06482" lon="1.61362">
        <ele>92</ele>
        <time>2011-06-09T12:07:05.000Z</time>
      </trkpt>
      <trkpt lat="50.06491" lon="1.61376">
        <ele>93</ele>
        <time>2011-06-09T12:07:15.000Z</time>
      </trkpt>
      <trkpt lat="50.06495" lon="1.61382">
        <ele>93</ele>
        <time>2011-06-09T12:07:19.000Z</time>
      </trkpt>
      <trkpt lat="50.06527" lon="1.61431">
        <ele>94</ele>
        <time>2011-06-09T12:07:55.000Z</time>
      </trkpt>
      <trkpt lat="50.06528" lon="1.61433">
        <ele>94</ele>
        <time>2011-06-09T12:07:56.000Z</time>
      </trkpt>
      <trkpt lat="50.06548" lon="1.61459">
        <ele>96</ele>
        <time>2011-06-09T12:08:17.000Z</time>
      </trkpt>
      <trkpt lat="50.06575" lon="1.61475">
        <ele>96</ele>
        <time>2011-06-09T12:08:43.000Z</time>
      </trkpt>
      <trkpt lat="50.06582" lon="1.6147">
        <ele>96</ele>
        <time>2011-06-09T12:08:49.000Z</time>
      </trkpt>
      <trkpt lat="50.06586" lon="1.61465">
        <ele>95</ele>
        <time>2011-06-09T12:08:53.000Z</time>
      </trkpt>
      <trkpt lat="50.06588" lon="1.61453">
        <ele>93</ele>
        <time>2011-06-09T12:08:59.000Z</time>
      </trkpt>
      <trkpt lat="50.06587" lon="1.61442">
        <ele>91</ele>
        <time>2011-06-09T12:09:05.000Z</time>
      </trkpt>
      <trkpt lat="50.06586" lon="1.61434">
        <ele>90</ele>
        <time>2011-06-09T12:09:09.000Z</time>
      </trkpt>
      <trkpt lat="50.06578" lon="1.61413">
        <ele>90</ele>
        <time>2011-06-09T12:09:19.000Z</time>
      </trkpt>
      <trkpt lat="50.0657" lon="1.61393">
        <ele>89</ele>
        <time>2011-06-09T12:09:24.000Z</time>
      </trkpt>
      <trkpt lat="50.06568" lon="1.61386">
        <ele>89</ele>
        <time>2011-06-09T12:09:26.000Z</time>
      </trkpt>
      <trkpt lat="50.06561" lon="1.61366">
        <ele>92</ele>
        <time>2011-06-09T12:09:34.000Z</time>
      </trkpt>
      <trkpt lat="50.06563" lon="1.61357">
        <ele>93</ele>
        <time>2011-06-09T12:09:59.000Z</time>
      </trkpt>
      <trkpt lat="50.06565" lon="1.61351">
        <ele>92</ele>
        <time>2011-06-09T12:10:04.000Z</time>
      </trkpt>
      <trkpt lat="50.06565" lon="1.61328">
        <ele>91</ele>
        <time>2011-06-09T12:10:17.000Z</time>
      </trkpt>
      <trkpt lat="50.06564" lon="1.61319">
        <ele>92</ele>
        <time>2011-06-09T12:10:22.000Z</time>
      </trkpt>
      <trkpt lat="50.06559" lon="1.61249">
        <ele>93</ele>
        <time>2011-06-09T12:10:58.000Z</time>
      </trkpt>
      <trkpt lat="50.06559" lon="1.61247">
        <ele>93</ele>
        <time>2011-06-09T12:10:59.000Z</time>
      </trkpt>
      <trkpt lat="50.06558" lon="1.6122">
        <ele>93</ele>
        <time>2011-06-09T12:11:14.000Z</time>
      </trkpt>
      <trkpt lat="50.06564" lon="1.61218">
        <ele>93</ele>
        <time>2011-06-09T12:11:20.000Z</time>
      </trkpt>
      <trkpt lat="50.06609" lon="1.61232">
        <ele>95</ele>
        <time>2011-06-09T12:11:59.000Z</time>
      </trkpt>
      <trkpt lat="50.0661" lon="1.61232">
        <ele>95</ele>
        <time>2011-06-09T12:12:00.000Z</time>
      </trkpt>
      <trkpt lat="50.06636" lon="1.61244">
        <ele>95</ele>
        <time>2011-06-09T12:12:25.000Z</time>
      </trkpt>
      <trkpt lat="50.06679" lon="1.61266">
        <ele>94</ele>
        <time>2011-06-09T12:13:05.000Z</time>
      </trkpt>
      <trkpt lat="50.0668" lon="1.61267">
        <ele>94</ele>
        <time>2011-06-09T12:13:06.000Z</time>
      </trkpt>
      <trkpt lat="50.06724" lon="1.61289">
        <ele>96</ele>
        <time>2011-06-09T12:13:42.000Z</time>
      </trkpt>
      <trkpt lat="50.06725" lon="1.6129">
        <ele>96</ele>
        <time>2011-06-09T12:13:43.000Z</time>
      </trkpt>
      <trkpt lat="50.06726" lon="1.61291">
        <ele>96</ele>
        <time>2011-06-09T12:13:44.000Z</time>
      </trkpt>
      <trkpt lat="50.06736" lon="1.61296">
        <ele>96</ele>
        <time>2011-06-09T12:13:53.000Z</time>
      </trkpt>
      <trkpt lat="50.06757" lon="1.61305">
        <ele>95</ele>
        <time>2011-06-09T12:14:11.000Z</time>
      </trkpt>
      <trkpt lat="50.06762" lon="1.61302">
        <ele>95</ele>
        <time>2011-06-09T12:14:16.000Z</time>
      </trkpt>
      <trkpt lat="50.06766" lon="1.61291">
        <ele>93</ele>
        <time>2011-06-09T12:14:25.000Z</time>
      </trkpt>
      <trkpt lat="50.06771" lon="1.61286">
        <ele>91</ele>
        <time>2011-06-09T12:14:34.000Z</time>
      </trkpt>
      <trkpt lat="50.06786" lon="1.61291">
        <ele>91</ele>
        <time>2011-06-09T12:14:47.000Z</time>
      </trkpt>
      <trkpt lat="50.0683" lon="1.61305">
        <ele>91</ele>
        <time>2011-06-09T12:15:25.000Z</time>
      </trkpt>
      <trkpt lat="50.06831" lon="1.61306">
        <ele>91</ele>
        <time>2011-06-09T12:15:26.000Z</time>
      </trkpt>
      <trkpt lat="50.06876" lon="1.61322">
        <ele>90</ele>
        <time>2011-06-09T12:16:03.000Z</time>
      </trkpt>
      <trkpt lat="50.06878" lon="1.61323">
        <ele>90</ele>
        <time>2011-06-09T12:16:04.000Z</time>
      </trkpt>
      <trkpt lat="50.06879" lon="1.61324">
        <ele>90</ele>
        <time>2011-06-09T12:16:05.000Z</time>
      </trkpt>
      <trkpt lat="50.06923" lon="1.61341">
        <ele>90</ele>
        <time>2011-06-09T12:16:43.000Z</time>
      </trkpt>
      <trkpt lat="50.06924" lon="1.61342">
        <ele>90</ele>
        <time>2011-06-09T12:16:44.000Z</time>
      </trkpt>
      <trkpt lat="50.06968" lon="1.61357">
        <ele>88</ele>
        <time>2011-06-09T12:17:21.000Z</time>
      </trkpt>
      <trkpt lat="50.06969" lon="1.61358">
        <ele>88</ele>
        <time>2011-06-09T12:17:22.000Z</time>
      </trkpt>
      <trkpt lat="50.07013" lon="1.61374">
        <ele>87</ele>
        <time>2011-06-09T12:17:59.000Z</time>
      </trkpt>
      <trkpt lat="50.07014" lon="1.61374">
        <ele>87</ele>
        <time>2011-06-09T12:18:00.000Z</time>
      </trkpt>
      <trkpt lat="50.07059" lon="1.6139">
        <ele>84</ele>
        <time>2011-06-09T12:18:38.000Z</time>
      </trkpt>
      <trkpt lat="50.0706" lon="1.6139">
        <ele>84</ele>
        <time>2011-06-09T12:18:39.000Z</time>
      </trkpt>
      <trkpt lat="50.07105" lon="1.61405">
        <ele>84</ele>
        <time>2011-06-09T12:19:15.000Z</time>
      </trkpt>
      <trkpt lat="50.07106" lon="1.61406">
        <ele>84</ele>
        <time>2011-06-09T12:19:16.000Z</time>
      </trkpt>
      <trkpt lat="50.07118" lon="1.61412">
        <ele>84</ele>
        <time>2011-06-09T12:19:28.000Z</time>
      </trkpt>
      <trkpt lat="50.07137" lon="1.6142">
        <ele>84</ele>
        <time>2011-06-09T12:19:50.000Z</time>
      </trkpt>
      <trkpt lat="50.07182" lon="1.61434">
        <ele>87</ele>
        <time>2011-06-09T12:20:31.000Z</time>
      </trkpt>
      <trkpt lat="50.07183" lon="1.61434">
        <ele>86</ele>
        <time>2011-06-09T12:20:32.000Z</time>
      </trkpt>
      <trkpt lat="50.07199" lon="1.61441">
        <ele>86</ele>
        <time>2011-06-09T12:20:46.000Z</time>
      </trkpt>
      <trkpt lat="50.07221" lon="1.61455">
        <ele>87</ele>
        <time>2011-06-09T12:21:05.000Z</time>
      </trkpt>
      <trkpt lat="50.07241" lon="1.61478">
        <ele>88</ele>
        <time>2011-06-09T12:21:27.000Z</time>
      </trkpt>
      <trkpt lat="50.07249" lon="1.61492">
        <ele>87</ele>
        <time>2011-06-09T12:21:38.000Z</time>
      </trkpt>
      <trkpt lat="50.07279" lon="1.61546">
        <ele>86</ele>
        <time>2011-06-09T12:22:19.000Z</time>
      </trkpt>
      <trkpt lat="50.0728" lon="1.61548">
        <ele>86</ele>
        <time>2011-06-09T12:22:20.000Z</time>
      </trkpt>
      <trkpt lat="50.07291" lon="1.61565">
        <ele>88</ele>
        <time>2011-06-09T12:23:25.000Z</time>
      </trkpt>
      <trkpt lat="50.07296" lon="1.61574">
        <ele>90</ele>
        <time>2011-06-09T12:24:19.000Z</time>
      </trkpt>
      <trkpt lat="50.07326" lon="1.61627">
        <ele>89</ele>
        <time>2011-06-09T12:24:59.000Z</time>
      </trkpt>
      <trkpt lat="50.07327" lon="1.61628">
        <ele>89</ele>
        <time>2011-06-09T12:25:00.000Z</time>
      </trkpt>
      <trkpt lat="50.07349" lon="1.6167">
        <ele>87</ele>
        <time>2011-06-09T12:25:31.000Z</time>
      </trkpt>
      <trkpt lat="50.07355" lon="1.61688">
        <ele>88</ele>
        <time>2011-06-09T12:25:42.000Z</time>
      </trkpt>
      <trkpt lat="50.07354" lon="1.61705">
        <ele>90</ele>
        <time>2011-06-09T12:25:53.000Z</time>
      </trkpt>
      <trkpt lat="50.07351" lon="1.61719">
        <ele>95</ele>
        <time>2011-06-09T12:26:02.000Z</time>
      </trkpt>
      <trkpt lat="50.07344" lon="1.61738">
        <ele>94</ele>
        <time>2011-06-09T12:26:17.000Z</time>
      </trkpt>
      <trkpt lat="50.07337" lon="1.61766">
        <ele>96</ele>
        <time>2011-06-09T12:26:37.000Z</time>
      </trkpt>
      <trkpt lat="50.07333" lon="1.61775">
        <ele>96</ele>
        <time>2011-06-09T12:26:43.000Z</time>
      </trkpt>
      <trkpt lat="50.07332" lon="1.61783">
        <ele>95</ele>
        <time>2011-06-09T12:26:48.000Z</time>
      </trkpt>
      <trkpt lat="50.0733" lon="1.61791">
        <ele>94</ele>
        <time>2011-06-09T12:26:53.000Z</time>
      </trkpt>
      <trkpt lat="50.07325" lon="1.618">
        <ele>91</ele>
        <time>2011-06-09T12:26:59.000Z</time>
      </trkpt>
      <trkpt lat="50.07318" lon="1.61818">
        <ele>94</ele>
        <time>2011-06-09T12:27:10.000Z</time>
      </trkpt>
      <trkpt lat="50.07315" lon="1.6183">
        <ele>99</ele>
        <time>2011-06-09T12:27:19.000Z</time>
      </trkpt>
      <trkpt lat="50.07296" lon="1.61872">
        <ele>100</ele>
        <time>2011-06-09T12:27:43.000Z</time>
      </trkpt>
      <trkpt lat="50.07289" lon="1.61901">
        <ele>107</ele>
        <time>2011-06-09T12:27:59.000Z</time>
      </trkpt>
      <trkpt lat="50.07276" lon="1.61942">
        <ele>101</ele>
        <time>2011-06-09T12:28:24.000Z</time>
      </trkpt>
      <trkpt lat="50.0727" lon="1.61951">
        <ele>98</ele>
        <time>2011-06-09T12:28:30.000Z</time>
      </trkpt>
      <trkpt lat="50.07267" lon="1.61961">
        <ele>93</ele>
        <time>2011-06-09T12:28:37.000Z</time>
      </trkpt>
      <trkpt lat="50.07264" lon="1.61975">
        <ele>90</ele>
        <time>2011-06-09T12:28:46.000Z</time>
      </trkpt>
      <trkpt lat="50.07261" lon="1.61986">
        <ele>86</ele>
        <time>2011-06-09T12:28:54.000Z</time>
      </trkpt>
      <trkpt lat="50.07254" lon="1.62002">
        <ele>88</ele>
        <time>2011-06-09T12:29:04.000Z</time>
      </trkpt>
      <trkpt lat="50.07252" lon="1.62009">
        <ele>90</ele>
        <time>2011-06-09T12:29:09.000Z</time>
      </trkpt>
      <trkpt lat="50.07248" lon="1.62022">
        <ele>91</ele>
        <time>2011-06-09T12:29:17.000Z</time>
      </trkpt>
      <trkpt lat="50.07245" lon="1.62029">
        <ele>91</ele>
        <time>2011-06-09T12:29:22.000Z</time>
      </trkpt>
      <trkpt lat="50.07243" lon="1.62036">
        <ele>91</ele>
        <time>2011-06-09T12:29:26.000Z</time>
      </trkpt>
      <trkpt lat="50.07242" lon="1.62045">
        <ele>95</ele>
        <time>2011-06-09T12:29:32.000Z</time>
      </trkpt>
      <trkpt lat="50.0724" lon="1.62052">
        <ele>95</ele>
        <time>2011-06-09T12:29:37.000Z</time>
      </trkpt>
      <trkpt lat="50.07236" lon="1.62063">
        <ele>93</ele>
        <time>2011-06-09T12:29:44.000Z</time>
      </trkpt>
      <trkpt lat="50.07233" lon="1.62075">
        <ele>93</ele>
        <time>2011-06-09T12:29:50.000Z</time>
      </trkpt>
      <trkpt lat="50.07225" lon="1.62099">
        <ele>93</ele>
        <time>2011-06-09T12:30:02.000Z</time>
      </trkpt>
      <trkpt lat="50.07215" lon="1.6213">
        <ele>96</ele>
        <time>2011-06-09T12:30:22.000Z</time>
      </trkpt>
      <trkpt lat="50.07216" lon="1.62139">
        <ele>95</ele>
        <time>2011-06-09T12:30:28.000Z</time>
      </trkpt>
      <trkpt lat="50.07223" lon="1.6216">
        <ele>93</ele>
        <time>2011-06-09T12:30:43.000Z</time>
      </trkpt>
      <trkpt lat="50.07246" lon="1.62221">
        <ele>88</ele>
        <time>2011-06-09T12:31:27.000Z</time>
      </trkpt>
      <trkpt lat="50.07246" lon="1.62223">
        <ele>88</ele>
        <time>2011-06-09T12:31:28.000Z</time>
      </trkpt>
      <trkpt lat="50.07269" lon="1.62284">
        <ele>89</ele>
        <time>2011-06-09T12:32:08.000Z</time>
      </trkpt>
      <trkpt lat="50.0727" lon="1.62286">
        <ele>89</ele>
        <time>2011-06-09T12:32:09.000Z</time>
      </trkpt>
      <trkpt lat="50.07293" lon="1.62348">
        <ele>89</ele>
        <time>2011-06-09T12:32:49.000Z</time>
      </trkpt>
      <trkpt lat="50.07293" lon="1.62349">
        <ele>89</ele>
        <time>2011-06-09T12:32:50.000Z</time>
      </trkpt>
      <trkpt lat="50.07316" lon="1.6241">
        <ele>86</ele>
        <time>2011-06-09T12:33:29.000Z</time>
      </trkpt>
      <trkpt lat="50.07317" lon="1.62412">
        <ele>86</ele>
        <time>2011-06-09T12:33:30.000Z</time>
      </trkpt>
      <trkpt lat="50.0734" lon="1.62474">
        <ele>88</ele>
        <time>2011-06-09T12:34:08.000Z</time>
      </trkpt>
      <trkpt lat="50.07341" lon="1.62476">
        <ele>88</ele>
        <time>2011-06-09T12:34:09.000Z</time>
      </trkpt>
      <trkpt lat="50.07357" lon="1.62521">
        <ele>89</ele>
        <time>2011-06-09T12:34:41.000Z</time>
      </trkpt>
      <trkpt lat="50.07361" lon="1.62528">
        <ele>90</ele>
        <time>2011-06-09T12:34:46.000Z</time>
      </trkpt>
      <trkpt lat="50.07385" lon="1.62556">
        <ele>85</ele>
        <time>2011-06-09T12:35:14.000Z</time>
      </trkpt>
      <trkpt lat="50.07409" lon="1.62566">
        <ele>86</ele>
        <time>2011-06-09T12:35:34.000Z</time>
      </trkpt>
      <trkpt lat="50.07455" lon="1.62574">
        <ele>84</ele>
        <time>2011-06-09T12:36:14.000Z</time>
      </trkpt>
      <trkpt lat="50.07456" lon="1.62574">
        <ele>83</ele>
        <time>2011-06-09T12:36:15.000Z</time>
      </trkpt>
      <trkpt lat="50.07482" lon="1.62581">
        <ele>80</ele>
        <time>2011-06-09T12:36:43.000Z</time>
      </trkpt>
      <trkpt lat="50.07481" lon="1.6259">
        <ele>79</ele>
        <time>2011-06-09T12:36:59.000Z</time>
      </trkpt>
      <trkpt lat="50.07479" lon="1.62607">
        <ele>79</ele>
        <time>2011-06-09T12:37:11.000Z</time>
      </trkpt>
      <trkpt lat="50.07477" lon="1.62617">
        <ele>81</ele>
        <time>2011-06-09T12:37:17.000Z</time>
      </trkpt>
      <trkpt lat="50.07465" lon="1.62665">
        <ele>88</ele>
        <time>2011-06-09T12:37:46.000Z</time>
      </trkpt>
      <trkpt lat="50.07447" lon="1.62702">
        <ele>85</ele>
        <time>2011-06-09T12:38:12.000Z</time>
      </trkpt>
      <trkpt lat="50.0744" lon="1.62718">
        <ele>87</ele>
        <time>2011-06-09T12:38:22.000Z</time>
      </trkpt>
      <trkpt lat="50.07437" lon="1.62725">
        <ele>87</ele>
        <time>2011-06-09T12:38:27.000Z</time>
      </trkpt>
      <trkpt lat="50.07432" lon="1.62733">
        <ele>87</ele>
        <time>2011-06-09T12:38:33.000Z</time>
      </trkpt>
      <trkpt lat="50.07418" lon="1.62758">
        <ele>81</ele>
        <time>2011-06-09T12:38:53.000Z</time>
      </trkpt>
      <trkpt lat="50.07413" lon="1.62771">
        <ele>80</ele>
        <time>2011-06-09T12:39:02.000Z</time>
      </trkpt>
      <trkpt lat="50.07392" lon="1.6282">
        <ele>83</ele>
        <time>2011-06-09T12:39:34.000Z</time>
      </trkpt>
      <trkpt lat="50.07388" lon="1.62825">
        <ele>83</ele>
        <time>2011-06-09T12:39:39.000Z</time>
      </trkpt>
      <trkpt lat="50.07344" lon="1.62845">
        <ele>92</ele>
        <time>2011-06-09T12:40:21.000Z</time>
      </trkpt>
      <trkpt lat="50.07343" lon="1.62846">
        <ele>92</ele>
        <time>2011-06-09T12:40:22.000Z</time>
      </trkpt>
      <trkpt lat="50.07328" lon="1.62856">
        <ele>93</ele>
        <time>2011-06-09T12:40:37.000Z</time>
      </trkpt>
      <trkpt lat="50.07318" lon="1.62872">
        <ele>94</ele>
        <time>2011-06-09T12:40:49.000Z</time>
      </trkpt>
      <trkpt lat="50.07314" lon="1.62882">
        <ele>91</ele>
        <time>2011-06-09T12:40:56.000Z</time>
      </trkpt>
      <trkpt lat="50.07302" lon="1.62909">
        <ele>85</ele>
        <time>2011-06-09T12:41:15.000Z</time>
      </trkpt>
      <trkpt lat="50.07287" lon="1.62976">
        <ele>85</ele>
        <time>2011-06-09T12:41:55.000Z</time>
      </trkpt>
      <trkpt lat="50.07286" lon="1.62978">
        <ele>85</ele>
        <time>2011-06-09T12:41:56.000Z</time>
      </trkpt>
      <trkpt lat="50.07273" lon="1.63045">
        <ele>89</ele>
        <time>2011-06-09T12:42:35.000Z</time>
      </trkpt>
      <trkpt lat="50.07272" lon="1.63047">
        <ele>89</ele>
        <time>2011-06-09T12:42:36.000Z</time>
      </trkpt>
      <trkpt lat="50.07258" lon="1.631">
        <ele>91</ele>
        <time>2011-06-09T12:43:08.000Z</time>
      </trkpt>
      <trkpt lat="50.07256" lon="1.63108">
        <ele>91</ele>
        <time>2011-06-09T12:43:13.000Z</time>
      </trkpt>
      <trkpt lat="50.07255" lon="1.63117">
        <ele>90</ele>
        <time>2011-06-09T12:43:19.000Z</time>
      </trkpt>
      <trkpt lat="50.0725" lon="1.63127">
        <ele>90</ele>
        <time>2011-06-09T12:43:27.000Z</time>
      </trkpt>
      <trkpt lat="50.07246" lon="1.63137">
        <ele>89</ele>
        <time>2011-06-09T12:43:45.000Z</time>
      </trkpt>
      <trkpt lat="50.07223" lon="1.63198">
        <ele>90</ele>
        <time>2011-06-09T12:44:28.000Z</time>
      </trkpt>
      <trkpt lat="50.07222" lon="1.632">
        <ele>90</ele>
        <time>2011-06-09T12:44:29.000Z</time>
      </trkpt>
      <trkpt lat="50.07199" lon="1.63261">
        <ele>89</ele>
        <time>2011-06-09T12:45:10.000Z</time>
      </trkpt>
      <trkpt lat="50.07199" lon="1.63262">
        <ele>89</ele>
        <time>2011-06-09T12:45:11.000Z</time>
      </trkpt>
      <trkpt lat="50.07198" lon="1.63263">
        <ele>89</ele>
        <time>2011-06-09T12:45:12.000Z</time>
      </trkpt>
      <trkpt lat="50.07172" lon="1.63322">
        <ele>90</ele>
        <time>2011-06-09T12:45:53.000Z</time>
      </trkpt>
      <trkpt lat="50.07171" lon="1.63323">
        <ele>90</ele>
        <time>2011-06-09T12:45:54.000Z</time>
      </trkpt>
      <trkpt lat="50.07168" lon="1.63321">
        <ele>90</ele>
        <time>2011-06-09T12:46:00.000Z</time>
      </trkpt>
      <trkpt lat="50.07162" lon="1.63319">
        <ele>90</ele>
        <time>2011-06-09T12:46:06.000Z</time>
      </trkpt>
      <trkpt lat="50.07119" lon="1.63301">
        <ele>93</ele>
        <time>2011-06-09T12:47:02.000Z</time>
      </trkpt>
      <trkpt lat="50.07118" lon="1.633">
        <ele>93</ele>
        <time>2011-06-09T12:47:03.000Z</time>
      </trkpt>
      <trkpt lat="50.07113" lon="1.63297">
        <ele>93</ele>
        <time>2011-06-09T12:47:08.000Z</time>
      </trkpt>
      <trkpt lat="50.07085" lon="1.63284">
        <ele>93</ele>
        <time>2011-06-09T12:47:35.000Z</time>
      </trkpt>
      <trkpt lat="50.07048" lon="1.63265">
        <ele>92</ele>
        <time>2011-06-09T12:48:06.000Z</time>
      </trkpt>
      <trkpt lat="50.07042" lon="1.63259">
        <ele>91</ele>
        <time>2011-06-09T12:48:16.000Z</time>
      </trkpt>
      <trkpt lat="50.07033" lon="1.63252">
        <ele>92</ele>
        <time>2011-06-09T12:48:24.000Z</time>
      </trkpt>
      <trkpt lat="50.07025" lon="1.63251">
        <ele>92</ele>
        <time>2011-06-09T12:48:38.000Z</time>
      </trkpt>
      <trkpt lat="50.07019" lon="1.6325">
        <ele>93</ele>
        <time>2011-06-09T12:48:43.000Z</time>
      </trkpt>
      <trkpt lat="50.06977" lon="1.63225">
        <ele>93</ele>
        <time>2011-06-09T12:49:25.000Z</time>
      </trkpt>
      <trkpt lat="50.06976" lon="1.63225">
        <ele>93</ele>
        <time>2011-06-09T12:49:26.000Z</time>
      </trkpt>
      <trkpt lat="50.06967" lon="1.63223">
        <ele>93</ele>
        <time>2011-06-09T12:49:34.000Z</time>
      </trkpt>
      <trkpt lat="50.06958" lon="1.63218">
        <ele>93</ele>
        <time>2011-06-09T12:49:42.000Z</time>
      </trkpt>
      <trkpt lat="50.06934" lon="1.63203">
        <ele>90</ele>
        <time>2011-06-09T12:50:02.000Z</time>
      </trkpt>
      <trkpt lat="50.06913" lon="1.63194">
        <ele>90</ele>
        <time>2011-06-09T12:50:29.000Z</time>
      </trkpt>
      <trkpt lat="50.06913" lon="1.6319">
        <ele>89</ele>
        <time>2011-06-09T12:50:40.000Z</time>
      </trkpt>
      <trkpt lat="50.06871" lon="1.63162">
        <ele>90</ele>
        <time>2011-06-09T12:51:28.000Z</time>
      </trkpt>
      <trkpt lat="50.0687" lon="1.63161">
        <ele>90</ele>
        <time>2011-06-09T12:51:29.000Z</time>
      </trkpt>
      <trkpt lat="50.06828" lon="1.63135">
        <ele>91</ele>
        <time>2011-06-09T12:52:11.000Z</time>
      </trkpt>
      <trkpt lat="50.06827" lon="1.63135">
        <ele>91</ele>
        <time>2011-06-09T12:52:12.000Z</time>
      </trkpt>
      <trkpt lat="50.06785" lon="1.63108">
        <ele>85</ele>
        <time>2011-06-09T12:52:57.000Z</time>
      </trkpt>
      <trkpt lat="50.06784" lon="1.63107">
        <ele>85</ele>
        <time>2011-06-09T12:52:58.000Z</time>
      </trkpt>
      <trkpt lat="50.06773" lon="1.63097">
        <ele>86</ele>
        <time>2011-06-09T12:53:19.000Z</time>
      </trkpt>
      <trkpt lat="50.06768" lon="1.63093">
        <ele>91</ele>
        <time>2011-06-09T13:03:13.000Z</time>
      </trkpt>
      <trkpt lat="50.06765" lon="1.63082">
        <ele>88</ele>
        <time>2011-06-09T13:11:08.000Z</time>
      </trkpt>
      <trkpt lat="50.06755" lon="1.63042">
        <ele>88</ele>
        <time>2011-06-09T13:11:38.000Z</time>
      </trkpt>
      <trkpt lat="50.06739" lon="1.62976">
        <ele>90</ele>
        <time>2011-06-09T13:12:23.000Z</time>
      </trkpt>
      <trkpt lat="50.06739" lon="1.62975">
        <ele>91</ele>
        <time>2011-06-09T13:12:24.000Z</time>
      </trkpt>
      <trkpt lat="50.06727" lon="1.62915">
        <ele>92</ele>
        <time>2011-06-09T13:12:59.000Z</time>
      </trkpt>
      <trkpt lat="50.06723" lon="1.62886">
        <ele>90</ele>
        <time>2011-06-09T13:13:17.000Z</time>
      </trkpt>
      <trkpt lat="50.0672" lon="1.62872">
        <ele>90</ele>
        <time>2011-06-09T13:13:26.000Z</time>
      </trkpt>
      <trkpt lat="50.0671" lon="1.62802">
        <ele>92</ele>
        <time>2011-06-09T13:14:06.000Z</time>
      </trkpt>
      <trkpt lat="50.06709" lon="1.628">
        <ele>92</ele>
        <time>2011-06-09T13:14:07.000Z</time>
      </trkpt>
      <trkpt lat="50.06699" lon="1.62731">
        <ele>89</ele>
        <time>2011-06-09T13:14:48.000Z</time>
      </trkpt>
      <trkpt lat="50.06699" lon="1.6273">
        <ele>89</ele>
        <time>2011-06-09T13:14:49.000Z</time>
      </trkpt>
      <trkpt lat="50.06696" lon="1.62709">
        <ele>89</ele>
        <time>2011-06-09T13:15:02.000Z</time>
      </trkpt>
      <trkpt lat="50.06691" lon="1.62681">
        <ele>89</ele>
        <time>2011-06-09T13:15:20.000Z</time>
      </trkpt>
      <trkpt lat="50.06682" lon="1.62611">
        <ele>89</ele>
        <time>2011-06-09T13:16:03.000Z</time>
      </trkpt>
      <trkpt lat="50.06682" lon="1.62609">
        <ele>89</ele>
        <time>2011-06-09T13:16:04.000Z</time>
      </trkpt>
      <trkpt lat="50.06682" lon="1.62605">
        <ele>88</ele>
        <time>2011-06-09T13:16:07.000Z</time>
      </trkpt>
      <trkpt lat="50.06676" lon="1.62534">
        <ele>90</ele>
        <time>2011-06-09T13:16:46.000Z</time>
      </trkpt>
      <trkpt lat="50.06676" lon="1.62533">
        <ele>90</ele>
        <time>2011-06-09T13:16:47.000Z</time>
      </trkpt>
      <trkpt lat="50.0667" lon="1.62476">
        <ele>89</ele>
        <time>2011-06-09T13:17:21.000Z</time>
      </trkpt>
      <trkpt lat="50.06659" lon="1.62407">
        <ele>89</ele>
        <time>2011-06-09T13:18:03.000Z</time>
      </trkpt>
      <trkpt lat="50.06659" lon="1.62406">
        <ele>89</ele>
        <time>2011-06-09T13:18:04.000Z</time>
      </trkpt>
      <trkpt lat="50.06659" lon="1.62402">
        <ele>89</ele>
        <time>2011-06-09T13:18:06.000Z</time>
      </trkpt>
      <trkpt lat="50.06658" lon="1.62389">
        <ele>89</ele>
        <time>2011-06-09T13:18:14.000Z</time>
      </trkpt>
      <trkpt lat="50.06657" lon="1.62342">
        <ele>93</ele>
        <time>2011-06-09T13:18:43.000Z</time>
      </trkpt>
      <trkpt lat="50.06659" lon="1.62335">
        <ele>92</ele>
        <time>2011-06-09T13:18:48.000Z</time>
      </trkpt>
      <trkpt lat="50.06662" lon="1.62326">
        <ele>92</ele>
        <time>2011-06-09T13:18:54.000Z</time>
      </trkpt>
      <trkpt lat="50.06665" lon="1.62314">
        <ele>92</ele>
        <time>2011-06-09T13:19:02.000Z</time>
      </trkpt>
      <trkpt lat="50.06671" lon="1.62293">
        <ele>91</ele>
        <time>2011-06-09T13:19:17.000Z</time>
      </trkpt>
      <trkpt lat="50.06669" lon="1.6228">
        <ele>91</ele>
        <time>2011-06-09T13:19:26.000Z</time>
      </trkpt>
      <trkpt lat="50.0666" lon="1.62258">
        <ele>91</ele>
        <time>2011-06-09T13:19:42.000Z</time>
      </trkpt>
      <trkpt lat="50.06655" lon="1.62242">
        <ele>90</ele>
        <time>2011-06-09T13:19:49.000Z</time>
      </trkpt>
      <trkpt lat="50.06649" lon="1.62238">
        <ele>90</ele>
        <time>2011-06-09T13:19:54.000Z</time>
      </trkpt>
      <trkpt lat="50.06645" lon="1.62234">
        <ele>92</ele>
        <time>2011-06-09T13:20:08.000Z</time>
      </trkpt>
      <trkpt lat="50.06639" lon="1.62233">
        <ele>91</ele>
        <time>2011-06-09T13:20:21.000Z</time>
      </trkpt>
      <trkpt lat="50.06609" lon="1.62227">
        <ele>92</ele>
        <time>2011-06-09T13:20:52.000Z</time>
      </trkpt>
      <trkpt lat="50.06568" lon="1.62197">
        <ele>89</ele>
        <time>2011-06-09T13:21:34.000Z</time>
      </trkpt>
      <trkpt lat="50.06567" lon="1.62196">
        <ele>89</ele>
        <time>2011-06-09T13:21:35.000Z</time>
      </trkpt>
      <trkpt lat="50.06556" lon="1.62186">
        <ele>88</ele>
        <time>2011-06-09T13:21:47.000Z</time>
      </trkpt>
      <trkpt lat="50.06516" lon="1.62154">
        <ele>88</ele>
        <time>2011-06-09T13:22:29.000Z</time>
      </trkpt>
      <trkpt lat="50.06514" lon="1.62154">
        <ele>88</ele>
        <time>2011-06-09T13:22:30.000Z</time>
      </trkpt>
      <trkpt lat="50.06474" lon="1.62123">
        <ele>91</ele>
        <time>2011-06-09T13:23:12.000Z</time>
      </trkpt>
      <trkpt lat="50.06472" lon="1.62122">
        <ele>91</ele>
        <time>2011-06-09T13:23:13.000Z</time>
      </trkpt>
      <trkpt lat="50.06432" lon="1.6209">
        <ele>92</ele>
        <time>2011-06-09T13:23:55.000Z</time>
      </trkpt>
      <trkpt lat="50.06431" lon="1.6209">
        <ele>92</ele>
        <time>2011-06-09T13:23:56.000Z</time>
      </trkpt>
      <trkpt lat="50.0639" lon="1.62058">
        <ele>94</ele>
        <time>2011-06-09T13:24:36.000Z</time>
      </trkpt>
      <trkpt lat="50.06389" lon="1.62057">
        <ele>94</ele>
        <time>2011-06-09T13:24:37.000Z</time>
      </trkpt>
      <trkpt lat="50.06349" lon="1.62025">
        <ele>93</ele>
        <time>2011-06-09T13:25:41.000Z</time>
      </trkpt>
      <trkpt lat="50.06348" lon="1.62024">
        <ele>93</ele>
        <time>2011-06-09T13:25:42.000Z</time>
      </trkpt>
      <trkpt lat="50.06333" lon="1.62012">
        <ele>93</ele>
        <time>2011-06-09T13:25:58.000Z</time>
      </trkpt>
      <trkpt lat="50.06292" lon="1.61983">
        <ele>92</ele>
        <time>2011-06-09T13:26:39.000Z</time>
      </trkpt>
      <trkpt lat="50.0629" lon="1.61982">
        <ele>92</ele>
        <time>2011-06-09T13:26:40.000Z</time>
      </trkpt>
      <trkpt lat="50.06277" lon="1.61971">
        <ele>93</ele>
        <time>2011-06-09T13:26:53.000Z</time>
      </trkpt>
      <trkpt lat="50.06242" lon="1.61935">
        <ele>92</ele>
        <time>2011-06-09T13:27:30.000Z</time>
      </trkpt>
      <trkpt lat="50.06238" lon="1.6193">
        <ele>91</ele>
        <time>2011-06-09T13:27:35.000Z</time>
      </trkpt>
      <trkpt lat="50.06225" lon="1.61913">
        <ele>90</ele>
        <time>2011-06-09T13:27:52.000Z</time>
      </trkpt>
      <trkpt lat="50.06226" lon="1.61905">
        <ele>91</ele>
        <time>2011-06-09T13:27:59.000Z</time>
      </trkpt>
      <trkpt lat="50.06231" lon="1.61889">
        <ele>93</ele>
        <time>2011-06-09T13:28:12.000Z</time>
      </trkpt>
      <trkpt lat="50.06234" lon="1.61881">
        <ele>93</ele>
        <time>2011-06-09T13:28:18.000Z</time>
      </trkpt>
      <trkpt lat="50.0625" lon="1.61839">
        <ele>90</ele>
        <time>2011-06-09T13:28:47.000Z</time>
      </trkpt>
      <trkpt lat="50.06258" lon="1.61813">
        <ele>91</ele>
        <time>2011-06-09T13:29:03.000Z</time>
      </trkpt>
      <trkpt lat="50.06262" lon="1.61804">
        <ele>98</ele>
        <time>2011-06-09T13:30:25.000Z</time>
      </trkpt>
      <trkpt lat="50.06282" lon="1.6175">
        <ele>93</ele>
        <time>2011-06-09T13:31:05.000Z</time>
      </trkpt>
      <trkpt lat="50.06288" lon="1.61729">
        <ele>91</ele>
        <time>2011-06-09T13:31:17.000Z</time>
      </trkpt>
      <trkpt lat="50.06295" lon="1.61705">
        <ele>91</ele>
        <time>2011-06-09T13:31:30.000Z</time>
      </trkpt>
      <trkpt lat="50.06315" lon="1.6164">
        <ele>88</ele>
        <time>2011-06-09T13:32:04.000Z</time>
      </trkpt>
      <trkpt lat="50.06316" lon="1.61638">
        <ele>87</ele>
        <time>2011-06-09T13:32:05.000Z</time>
      </trkpt>
      <trkpt lat="50.0632" lon="1.61618">
        <ele>89</ele>
        <time>2011-06-09T13:32:16.000Z</time>
      </trkpt>
      <trkpt lat="50.06326" lon="1.61594">
        <ele>90</ele>
        <time>2011-06-09T13:32:31.000Z</time>
      </trkpt>
      <trkpt lat="50.0633" lon="1.61582">
        <ele>91</ele>
        <time>2011-06-09T13:32:39.000Z</time>
      </trkpt>
      <trkpt lat="50.06334" lon="1.61566">
        <ele>91</ele>
        <time>2011-06-09T13:32:48.000Z</time>
      </trkpt>
      <trkpt lat="50.06339" lon="1.61546">
        <ele>91</ele>
        <time>2011-06-09T13:33:00.000Z</time>
      </trkpt>
      <trkpt lat="50.06343" lon="1.61528">
        <ele>90</ele>
        <time>2011-06-09T13:33:10.000Z</time>
      </trkpt>
      <trkpt lat="50.06352" lon="1.61476">
        <ele>85</ele>
        <time>2011-06-09T13:33:43.000Z</time>
      </trkpt>
      <trkpt lat="50.06353" lon="1.6146">
        <ele>85</ele>
        <time>2011-06-09T13:33:51.000Z</time>
      </trkpt>
      <trkpt lat="50.06354" lon="1.6145">
        <ele>84</ele>
        <time>2011-06-09T13:33:57.000Z</time>
      </trkpt>
      <trkpt lat="50.06357" lon="1.61418">
        <ele>86</ele>
        <time>2011-06-09T13:34:16.000Z</time>
      </trkpt>
      <trkpt lat="50.06357" lon="1.61399">
        <ele>88</ele>
        <time>2011-06-09T13:34:36.000Z</time>
      </trkpt>
      <trkpt lat="50.06375" lon="1.61358">
        <ele>88</ele>
        <time>2011-06-09T13:35:05.000Z</time>
      </trkpt>
      <trkpt lat="50.06378" lon="1.61339">
        <ele>88</ele>
        <time>2011-06-09T13:35:16.000Z</time>
      </trkpt>
      <trkpt lat="50.0639" lon="1.6127">
        <ele>87</ele>
        <time>2011-06-09T13:35:59.000Z</time>
      </trkpt>
      <trkpt lat="50.0639" lon="1.61268">
        <ele>87</ele>
        <time>2011-06-09T13:36:00.000Z</time>
      </trkpt>
      <trkpt lat="50.06396" lon="1.61229">
        <ele>83</ele>
        <time>2011-06-09T13:36:26.000Z</time>
      </trkpt>
      <trkpt lat="50.06399" lon="1.6121">
        <ele>82</ele>
        <time>2011-06-09T13:36:38.000Z</time>
      </trkpt>
      <trkpt lat="50.064" lon="1.61192">
        <ele>80</ele>
        <time>2011-06-09T13:36:50.000Z</time>
      </trkpt>
      <trkpt lat="50.06402" lon="1.61159">
        <ele>79</ele>
        <time>2011-06-09T13:37:09.000Z</time>
      </trkpt>
      <trkpt lat="50.06399" lon="1.61147">
        <ele>81</ele>
        <time>2011-06-09T13:37:16.000Z</time>
      </trkpt>
      <trkpt lat="50.06393" lon="1.61129">
        <ele>85</ele>
        <time>2011-06-09T13:37:26.000Z</time>
      </trkpt>
      <trkpt lat="50.06387" lon="1.61121">
        <ele>87</ele>
        <time>2011-06-09T13:37:32.000Z</time>
      </trkpt>
      <trkpt lat="50.06353" lon="1.61093">
        <ele>90</ele>
        <time>2011-06-09T13:38:02.000Z</time>
      </trkpt>
      <trkpt lat="50.0631" lon="1.61073">
        <ele>91</ele>
        <time>2011-06-09T13:38:38.000Z</time>
      </trkpt>
      <trkpt lat="50.06309" lon="1.61072">
        <ele>91</ele>
        <time>2011-06-09T13:38:39.000Z</time>
      </trkpt>
      <trkpt lat="50.06268" lon="1.61056">
        <ele>94</ele>
        <time>2011-06-09T13:39:15.000Z</time>
      </trkpt>
      <trkpt lat="50.06224" lon="1.61039">
        <ele>89</ele>
        <time>2011-06-09T13:39:53.000Z</time>
      </trkpt>
      <trkpt lat="50.06223" lon="1.61039">
        <ele>89</ele>
        <time>2011-06-09T13:39:54.000Z</time>
      </trkpt>
      <trkpt lat="50.06215" lon="1.61035">
        <ele>88</ele>
        <time>2011-06-09T13:40:01.000Z</time>
      </trkpt>
      <trkpt lat="50.0621" lon="1.61032">
        <ele>89</ele>
        <time>2011-06-09T13:40:05.000Z</time>
      </trkpt>
      <trkpt lat="50.06201" lon="1.61029">
        <ele>88</ele>
        <time>2011-06-09T13:40:13.000Z</time>
      </trkpt>
      <trkpt lat="50.06192" lon="1.61022">
        <ele>89</ele>
        <time>2011-06-09T13:40:21.000Z</time>
      </trkpt>
      <trkpt lat="50.0615" lon="1.61007">
        <ele>87</ele>
        <time>2011-06-09T13:40:58.000Z</time>
      </trkpt>
      <trkpt lat="50.06121" lon="1.61007">
        <ele>88</ele>
        <time>2011-06-09T13:41:24.000Z</time>
      </trkpt>
      <trkpt lat="50.06113" lon="1.61005">
        <ele>89</ele>
        <time>2011-06-09T13:41:36.000Z</time>
      </trkpt>
      <trkpt lat="50.06108" lon="1.61009">
        <ele>95</ele>
        <time>2011-06-09T13:43:42.000Z</time>
      </trkpt>
      <trkpt lat="50.06105" lon="1.61002">
        <ele>93</ele>
        <time>2011-06-09T13:43:57.000Z</time>
      </trkpt>
      <trkpt lat="50.06096" lon="1.6098">
        <ele>91</ele>
        <time>2011-06-09T13:44:17.000Z</time>
      </trkpt>
      <trkpt lat="50.0609" lon="1.60968">
        <ele>92</ele>
        <time>2011-06-09T13:46:02.000Z</time>
      </trkpt>
      <trkpt lat="50.06089" lon="1.60969">
        <ele>93</ele>
        <time>2011-06-09T13:48:55.000Z</time>
      </trkpt>
      <trkpt lat="50.06085" lon="1.60966">
        <ele>92</ele>
        <time>2011-06-09T13:49:29.000Z</time>
      </trkpt>
      <trkpt lat="50.06083" lon="1.60967">
        <ele>91</ele>
        <time>2011-06-09T13:49:52.000Z</time>
      </trkpt>
    </trkseg>
  </trk>
</gpx>